Malvinas Argentinas, Argentina
Current Conditions -  °F | °C
As of 11:00 AM on Thursday 30 Oct 2014 (Local Time) from SACO Reporting Station
Broken Clouds Broken Clouds  
Wind Chill: 72°   Ceiling: 10000
Heat Index: 72°   Visibility: 6mi
Dew Point: 55°   Wind: 3mph
Humidity: 57%   Direction: 230°SW
Pressure: 29.94"   Gusts: NA
Location:  31.35°S, 63.8°W
Report Text: SACO 301400Z 23003KT 9999 FEW020 BKN10022/13 Q1014
Loading
Personal Weather Stations






























Interactive Weather Map
Tropical Storm Tracking
New forecast layout! Learn more

10-Day Weather Forecast

Advertisements
Track Severe Weather on mobile